createdAt,value
2023-11-22T00:01:27.740Z,101378.00
2023-11-22T00:03:56.725Z,101383.00
2023-11-22T00:06:28.664Z,101396.00
2023-11-22T00:08:56.256Z,101391.00
2023-11-22T00:11:23.849Z,101403.00
2023-11-22T00:13:58.300Z,101405.00
2023-11-22T00:16:26.393Z,101411.00
2023-11-22T00:18:54.036Z,101402.00
2023-11-22T00:21:22.181Z,101416.00
2023-11-22T00:23:50.024Z,101418.00
2023-11-22T00:26:17.841Z,101419.00
2023-11-22T00:28:45.629Z,101419.00
2023-11-22T00:31:16.105Z,101433.00
2023-11-22T00:33:44.359Z,101433.00
2023-11-22T00:36:12.130Z,101435.00
2023-11-22T00:38:40.924Z,101434.00
2023-11-22T00:41:09.018Z,101436.00
2023-11-22T00:43:37.024Z,101433.00
2023-11-22T00:46:04.892Z,101442.00
2023-11-22T00:48:32.764Z,101435.00
2023-11-22T00:51:00.766Z,101445.00
2023-11-22T00:53:28.606Z,101440.00
2023-11-22T00:55:57.346Z,101446.00
2023-11-22T00:58:25.377Z,101447.00
2023-11-22T01:00:53.172Z,101450.00
2023-11-22T01:03:20.886Z,101462.00
2023-11-22T01:05:48.546Z,101452.00
2023-11-22T01:08:16.262Z,101462.00
2023-11-22T01:10:43.910Z,101461.00
2023-11-22T01:13:11.571Z,101459.00
2023-11-22T01:15:39.485Z,101457.00
2023-11-22T01:18:07.220Z,101444.00
2023-11-22T01:20:35.047Z,101434.00
2023-11-22T01:23:02.844Z,101439.00
2023-11-22T01:25:30.664Z,101438.00
2023-11-22T01:27:58.435Z,101447.00
2023-11-22T01:30:26.156Z,101449.00
2023-11-22T01:32:53.961Z,101459.00
2023-11-22T01:35:21.655Z,101454.00
2023-11-22T01:37:50.759Z,101466.00
2023-11-22T01:40:20.859Z,101461.00
2023-11-22T01:42:48.685Z,101469.00
2023-11-22T01:45:16.463Z,101477.00
2023-11-22T01:47:44.901Z,101473.00
2023-11-22T01:50:16.030Z,101477.00
2023-11-22T01:52:44.346Z,101472.00
2023-11-22T01:55:12.282Z,101483.00
2023-11-22T01:57:40.279Z,101483.00
2023-11-22T02:00:16.405Z,101486.00
2023-11-22T02:02:45.900Z,101485.00
2023-11-22T02:05:14.033Z,101493.00
2023-11-22T02:07:42.918Z,101502.00
2023-11-22T02:10:11.280Z,101492.00
2023-11-22T02:12:39.091Z,101497.00
2023-11-22T02:15:07.440Z,101491.00
2023-11-22T02:17:35.875Z,101494.00
2023-11-22T02:20:07.713Z,101504.00
2023-11-22T02:22:35.267Z,101510.00
2023-11-22T02:25:03.393Z,101506.00
2023-11-22T02:27:31.086Z,101500.00
2023-11-22T02:29:58.977Z,101501.00
2023-11-22T02:32:28.368Z,101500.00
2023-11-22T02:34:56.889Z,101497.00
2023-11-22T02:37:26.356Z,101496.00
2023-11-22T02:40:21.320Z,101485.00
2023-11-22T02:42:52.591Z,101489.00
2023-11-22T02:45:25.426Z,101490.00
2023-11-22T02:47:54.096Z,101498.00
2023-11-22T02:50:22.208Z,101493.00
2023-11-22T02:52:49.889Z,101494.00
2023-11-22T02:55:17.920Z,101504.00
2023-11-22T02:57:49.421Z,101502.00
2023-11-22T03:00:17.492Z,101504.00
2023-11-22T03:02:46.875Z,101512.00
2023-11-22T03:05:18.401Z,101512.00
2023-11-22T03:07:46.785Z,101509.00
2023-11-22T03:10:15.270Z,101521.00
2023-11-22T03:12:43.473Z,101518.00
2023-11-22T03:15:12.101Z,101525.00
2023-11-22T03:17:40.355Z,101543.00
2023-11-22T03:20:12.839Z,101537.00
2023-11-22T03:22:41.177Z,101541.00
2023-11-22T03:25:11.628Z,101544.00
2023-11-22T03:27:40.329Z,101542.00
2023-11-22T03:30:13.358Z,101544.00
2023-11-22T03:32:42.032Z,101547.00
2023-11-22T03:35:10.241Z,101546.00
2023-11-22T03:37:38.729Z,101543.00
2023-11-22T03:40:06.953Z,101547.00
2023-11-22T03:42:34.596Z,101555.00
2023-11-22T03:45:02.560Z,101562.00
2023-11-22T03:47:34.618Z,101566.00
2023-11-22T03:50:02.759Z,101571.00
2023-11-22T03:52:33.526Z,101575.00
2023-11-22T03:55:01.431Z,101566.00
2023-11-22T03:57:29.076Z,101568.00
2023-11-22T03:59:56.671Z,101579.00
2023-11-22T04:02:24.401Z,101584.00
2023-11-22T04:04:52.189Z,101586.00
2023-11-22T04:07:20.493Z,101583.00
2023-11-22T04:09:48.128Z,101594.00
2023-11-22T04:12:15.892Z,101596.00
2023-11-22T04:14:43.822Z,101588.00
2023-11-22T04:17:14.873Z,101588.00
2023-11-22T04:19:43.060Z,101589.00
2023-11-22T04:22:14.227Z,101586.00
2023-11-22T04:24:42.080Z,101595.00
2023-11-22T04:27:09.810Z,101602.00
2023-11-22T04:29:37.730Z,101607.00
2023-11-22T04:32:06.060Z,101609.00
2023-11-22T04:34:33.985Z,101620.00
2023-11-22T04:37:01.596Z,101617.00
2023-11-22T04:39:29.322Z,101618.00
2023-11-22T04:41:57.110Z,101631.00
2023-11-22T04:44:25.098Z,101629.00
2023-11-22T04:46:53.026Z,101637.00
2023-11-22T04:49:20.791Z,101647.00
2023-11-22T04:51:48.577Z,101656.00
2023-11-22T04:54:16.206Z,101664.00
2023-11-22T04:56:44.315Z,101654.00
2023-11-22T04:59:12.122Z,101669.00
2023-11-22T05:04:30.960Z,101687.00
2023-11-22T05:06:58.615Z,101684.00
2023-11-22T05:09:26.290Z,101689.00
2023-11-22T05:11:53.861Z,101673.00
2023-11-22T05:14:21.621Z,101670.00
2023-11-22T05:16:49.232Z,101659.00
2023-11-22T05:19:16.781Z,101655.00
2023-11-22T05:21:44.492Z,101655.00
2023-11-22T05:24:12.244Z,101648.00
2023-11-22T05:26:39.965Z,101649.00
2023-11-22T05:29:07.646Z,101648.00
2023-11-22T05:31:35.248Z,101647.00
2023-11-22T05:34:03.091Z,101657.00
2023-11-22T05:36:31.508Z,101656.00
2023-11-22T05:39:01.994Z,101660.00
2023-11-22T05:41:29.694Z,101660.00
2023-11-22T05:43:57.578Z,101656.00
2023-11-22T05:46:26.263Z,101665.00
2023-11-22T05:48:54.454Z,101673.00
2023-11-22T05:51:22.368Z,101668.00
2023-11-22T05:53:49.925Z,101665.00
2023-11-22T05:56:18.286Z,101679.00
2023-11-22T05:58:46.205Z,101679.00
2023-11-22T06:01:13.769Z,101684.00
2023-11-22T06:03:41.677Z,101683.00
2023-11-22T06:06:09.647Z,101688.00
2023-11-22T06:08:37.572Z,101700.00
2023-11-22T06:11:05.265Z,101697.00
2023-11-22T06:13:33.104Z,101702.00
2023-11-22T06:16:00.705Z,101701.00
2023-11-22T06:18:31.321Z,101707.00
2023-11-22T06:20:59.018Z,101711.00
2023-11-22T06:23:26.715Z,101722.00
2023-11-22T06:25:54.504Z,101728.00
2023-11-22T06:28:23.954Z,101740.00
2023-11-22T06:30:51.834Z,101752.00
2023-11-22T06:33:19.700Z,101751.00
2023-11-22T06:35:48.131Z,101755.00
2023-11-22T06:38:15.924Z,101771.00
2023-11-22T06:40:43.637Z,101790.00
2023-11-22T06:43:11.466Z,101787.00
2023-11-22T06:45:39.186Z,101792.00
2023-11-22T06:48:10.262Z,101783.00
2023-11-22T06:50:38.243Z,101786.00
2023-11-22T06:53:06.052Z,101779.00
2023-11-22T06:56:07.368Z,101780.00
2023-11-22T06:58:36.104Z,101781.00
2023-11-22T07:01:03.910Z,101770.00
2023-11-22T07:03:32.853Z,101767.00
2023-11-22T07:06:00.908Z,101756.00
2023-11-22T07:08:29.848Z,101761.00
2023-11-22T07:10:58.135Z,101763.00
2023-11-22T07:13:26.173Z,101750.00
2023-11-22T07:15:55.148Z,101746.00
2023-11-22T07:18:25.672Z,101748.00
2023-11-22T07:20:55.072Z,101751.00
2023-11-22T07:23:26.874Z,101751.00
2023-11-22T07:25:55.813Z,101742.00
2023-11-22T07:28:23.553Z,101744.00
2023-11-22T07:30:51.247Z,101751.00
2023-11-22T07:33:21.847Z,101733.00
2023-11-22T07:35:49.838Z,101723.00
2023-11-22T07:38:18.681Z,101728.00
2023-11-22T07:40:46.525Z,101734.00
2023-11-22T07:43:14.260Z,101732.00
2023-11-22T07:45:42.234Z,101730.00
2023-11-22T07:48:12.615Z,101743.00
2023-11-22T07:50:40.684Z,101731.00
2023-11-22T07:53:10.428Z,101736.00
2023-11-22T07:55:39.114Z,101727.00
2023-11-22T07:58:10.007Z,101723.00
2023-11-22T08:00:43.251Z,101723.00
2023-11-22T08:03:16.873Z,101713.00
2023-11-22T08:05:49.540Z,101715.00
2023-11-22T08:08:17.210Z,101738.00
2023-11-22T08:10:45.170Z,101737.00
2023-11-22T08:13:12.733Z,101737.00
2023-11-22T08:15:40.633Z,101736.00
2023-11-22T08:18:08.816Z,101730.00
2023-11-22T08:20:36.941Z,101735.00
2023-11-22T08:23:07.339Z,101736.00
2023-11-22T08:25:34.923Z,101750.00
2023-11-22T08:28:02.695Z,101763.00
2023-11-22T08:30:34.131Z,101748.00
2023-11-22T08:33:01.940Z,101755.00
2023-11-22T08:35:31.169Z,101757.00
2023-11-22T08:37:59.754Z,101771.00
2023-11-22T08:40:27.529Z,101779.00
2023-11-22T08:42:55.630Z,101790.00
2023-11-22T08:45:23.577Z,101808.00
2023-11-22T08:47:52.733Z,101809.00
2023-11-22T08:50:21.353Z,101813.00
2023-11-22T08:52:49.142Z,101813.00
2023-11-22T08:55:16.985Z,101822.00
2023-11-22T08:57:44.734Z,101818.00
2023-11-22T09:00:15.975Z,101816.00
2023-11-22T09:02:43.963Z,101822.00
2023-11-22T09:05:14.480Z,101818.00
2023-11-22T09:07:42.461Z,101820.00
2023-11-22T09:10:11.749Z,101812.00
2023-11-22T09:12:40.765Z,101818.00
2023-11-22T09:15:19.086Z,101817.00
2023-11-22T09:17:48.314Z,101813.00
2023-11-22T09:20:18.187Z,101819.00
2023-11-22T09:22:50.652Z,101801.00
2023-11-22T09:25:25.888Z,101802.00
2023-11-22T09:27:56.800Z,101797.00
2023-11-22T09:30:40.128Z,101791.00
2023-11-22T09:33:10.572Z,101789.00
2023-11-22T09:35:39.292Z,101803.00
2023-11-22T09:38:15.802Z,101804.00
2023-11-22T09:40:50.857Z,101811.00
2023-11-22T09:43:20.491Z,101819.00
2023-11-22T09:45:53.220Z,101819.00
2023-11-22T09:48:24.848Z,101821.00
2023-11-22T09:51:19.126Z,101819.00
2023-11-22T09:54:15.552Z,101817.00
2023-11-22T09:56:51.819Z,101810.00
2023-11-22T09:59:20.947Z,101819.00
2023-11-22T10:01:48.646Z,101802.00
2023-11-22T10:04:16.758Z,101800.00
2023-11-22T10:06:47.769Z,101801.00
2023-11-22T10:09:15.733Z,101806.00
2023-11-22T10:11:45.368Z,101810.00
2023-11-22T10:14:16.717Z,101801.00
2023-11-22T10:16:49.936Z,101815.00
2023-11-22T10:19:20.205Z,101813.00
2023-11-22T10:21:48.884Z,101801.00
2023-11-22T10:24:23.197Z,101818.00
2023-11-22T10:26:53.878Z,101829.00
2023-11-22T10:29:21.673Z,101828.00
2023-11-22T10:31:50.909Z,101837.00
2023-11-22T10:34:21.612Z,101836.00
2023-11-22T10:36:49.418Z,101822.00
2023-11-22T10:39:27.635Z,101842.00
2023-11-22T10:41:55.947Z,101843.00
2023-11-22T10:44:24.777Z,101844.00
2023-11-22T10:46:53.708Z,101848.00
2023-11-22T10:49:22.812Z,101843.00
2023-11-22T10:51:54.736Z,101861.00
2023-11-22T10:54:25.947Z,101869.00
2023-11-22T10:56:57.564Z,101870.00
2023-11-22T10:59:26.466Z,101850.00
2023-11-22T11:01:56.126Z,101848.00
2023-11-22T11:04:31.798Z,101850.00
2023-11-22T11:06:59.996Z,101850.00
2023-11-22T11:09:34.116Z,101848.00
2023-11-22T11:12:08.460Z,101847.00
2023-11-22T11:14:37.371Z,101839.00
2023-11-22T11:17:06.143Z,101842.00
2023-11-22T11:19:34.900Z,101842.00
2023-11-22T11:22:03.044Z,101843.00
2023-11-22T11:24:30.660Z,101821.00
2023-11-22T11:27:04.929Z,101820.00
2023-11-22T11:29:34.080Z,101818.00
2023-11-22T11:32:03.652Z,101797.00
2023-11-22T11:34:31.583Z,101794.00
2023-11-22T11:37:01.600Z,101789.00
2023-11-22T11:39:32.928Z,101793.00
2023-11-22T11:42:14.303Z,101799.00
2023-11-22T11:45:10.285Z,101796.00
2023-11-22T11:47:38.128Z,101797.00
2023-11-22T11:50:06.240Z,101778.00
2023-11-22T11:52:34.020Z,101758.00
2023-11-22T11:55:02.043Z,101752.00
2023-11-22T11:57:33.549Z,101742.00
2023-11-22T12:00:01.553Z,101730.00
2023-11-22T12:02:30.446Z,101738.00
2023-11-22T12:04:58.317Z,101743.00
2023-11-22T12:07:26.129Z,101749.00
2023-11-22T12:09:54.195Z,101742.00
2023-11-22T12:12:22.073Z,101730.00
2023-11-22T12:14:51.178Z,101733.00
2023-11-22T12:17:19.571Z,101713.00
2023-11-22T12:19:47.218Z,101693.00
2023-11-22T12:22:15.247Z,101683.00
2023-11-22T12:24:44.811Z,101683.00
2023-11-22T12:27:12.562Z,101677.00
2023-11-22T12:29:43.352Z,101673.00
2023-11-22T12:32:13.346Z,101667.00
2023-11-22T12:34:41.447Z,101668.00
2023-11-22T12:37:09.505Z,101665.00
2023-11-22T12:39:38.745Z,101670.00
2023-11-22T12:42:11.184Z,101667.00
2023-11-22T12:44:54.968Z,101665.00
2023-11-22T12:47:38.977Z,101673.00
2023-11-22T12:50:08.596Z,101663.00
2023-11-22T12:52:36.533Z,101661.00
2023-11-22T12:55:05.910Z,101664.00
2023-11-22T12:57:34.239Z,101677.00
2023-11-22T13:00:02.595Z,101690.00
2023-11-22T13:02:31.686Z,101698.00
2023-11-22T13:05:00.879Z,101676.00
2023-11-22T13:07:28.587Z,101675.00
2023-11-22T13:09:56.147Z,101680.00
2023-11-22T13:12:25.632Z,101687.00
2023-11-22T13:14:53.573Z,101680.00
2023-11-22T13:17:21.361Z,101674.00
2023-11-22T13:19:50.759Z,101679.00
2023-11-22T13:22:20.617Z,101669.00
2023-11-22T13:24:48.285Z,101676.00
2023-11-22T13:27:15.933Z,101669.00
2023-11-22T13:29:45.350Z,101662.00
2023-11-22T13:32:13.289Z,101642.00
2023-11-22T13:34:41.004Z,101634.00
2023-11-22T13:37:08.537Z,101616.00
2023-11-22T13:39:37.456Z,101598.00
2023-11-22T13:42:05.582Z,101593.00
2023-11-22T13:44:33.283Z,101587.00
2023-11-22T13:47:01.297Z,101583.00
2023-11-22T13:49:28.881Z,101585.00
2023-11-22T13:51:56.790Z,101576.00
2023-11-22T13:54:24.501Z,101572.00
2023-11-22T13:56:53.158Z,101571.00
2023-11-22T13:59:21.087Z,101572.00
2023-11-22T14:01:50.319Z,101596.00
2023-11-22T14:04:19.403Z,101599.00
2023-11-22T14:06:47.241Z,101608.00
2023-11-22T14:09:16.175Z,101608.00
2023-11-22T14:11:43.887Z,101625.00
2023-11-22T14:14:14.121Z,101627.00
2023-11-22T14:16:46.080Z,101627.00
2023-11-22T14:19:14.543Z,101649.00
2023-11-22T14:21:42.258Z,101658.00
2023-11-22T14:24:10.498Z,101657.00
2023-11-22T14:26:38.239Z,101661.00
2023-11-22T14:29:07.318Z,101682.00
2023-11-22T14:31:35.186Z,101692.00
2023-11-22T14:34:06.767Z,101677.00
2023-11-22T14:36:34.572Z,101679.00
2023-11-22T14:39:02.096Z,101687.00
2023-11-22T14:41:31.099Z,101692.00
2023-11-22T14:43:58.965Z,101687.00
2023-11-22T14:46:26.870Z,101678.00
2023-11-22T14:48:54.558Z,101678.00
2023-11-22T14:51:22.333Z,101676.00
2023-11-22T14:53:50.244Z,101665.00
2023-11-22T14:56:18.944Z,101665.00
2023-11-22T14:58:54.913Z,101668.00
2023-11-22T15:01:24.451Z,101674.00
2023-11-22T15:03:53.976Z,101675.00
2023-11-22T15:06:22.259Z,101674.00
2023-11-22T15:08:52.136Z,101671.00
2023-11-22T15:11:20.104Z,101669.00
2023-11-22T15:13:48.284Z,101668.00
2023-11-22T15:16:17.386Z,101664.00
2023-11-22T15:18:45.107Z,101667.00
2023-11-22T15:21:13.141Z,101661.00
2023-11-22T15:23:40.841Z,101656.00
2023-11-22T15:26:08.603Z,101661.00
2023-11-22T15:28:37.071Z,101654.00
2023-11-22T15:31:05.106Z,101654.00
2023-11-22T15:33:33.668Z,101656.00
2023-11-22T15:36:02.344Z,101634.00
2023-11-22T15:38:30.168Z,101620.00
2023-11-22T15:41:07.831Z,101615.00
2023-11-22T15:43:44.030Z,101615.00
2023-11-22T15:46:14.234Z,101622.00
2023-11-22T15:48:42.180Z,101612.00
2023-11-22T15:51:12.984Z,101604.00
2023-11-22T15:53:40.721Z,101601.00
2023-11-22T15:56:11.594Z,101605.00
2023-11-22T15:58:43.157Z,101601.00
2023-11-22T16:01:12.196Z,101601.00
2023-11-22T16:03:40.968Z,101587.00
2023-11-22T16:06:12.478Z,101567.00
2023-11-22T16:08:40.248Z,101571.00
2023-11-22T16:11:11.905Z,101559.00
2023-11-22T16:13:41.214Z,101557.00
2023-11-22T16:16:10.015Z,101561.00
2023-11-22T16:18:39.791Z,101564.00
2023-11-22T16:21:09.632Z,101559.00
2023-11-22T16:23:37.365Z,101567.00
2023-11-22T16:26:06.008Z,101565.00
2023-11-22T16:28:34.916Z,101567.00
2023-11-22T16:31:05.320Z,101576.00
2023-11-22T16:33:33.316Z,101581.00
2023-11-22T16:36:02.020Z,101564.00
2023-11-22T16:38:29.870Z,101570.00
2023-11-22T16:40:57.720Z,101576.00
2023-11-22T16:43:25.575Z,101566.00
2023-11-22T16:45:53.361Z,101564.00
2023-11-22T16:48:21.198Z,101565.00
2023-11-22T16:50:51.174Z,101553.00
2023-11-22T16:53:18.926Z,101560.00
2023-11-22T16:55:47.006Z,101550.00
2023-11-22T16:58:14.679Z,101544.00
2023-11-22T17:00:42.352Z,101535.00
2023-11-22T17:03:10.236Z,101518.00
2023-11-22T17:05:38.118Z,101515.00
2023-11-22T17:08:05.913Z,101517.00
2023-11-22T17:10:45.770Z,101509.00
2023-11-22T17:13:16.328Z,101512.00
2023-11-22T17:15:45.766Z,101507.00
2023-11-22T17:18:15.853Z,101509.00
2023-11-22T17:20:47.300Z,101502.00
2023-11-22T17:23:15.648Z,101498.00
2023-11-22T17:25:44.588Z,101498.00
2023-11-22T17:28:12.342Z,101496.00
2023-11-22T17:30:40.080Z,101482.00
2023-11-22T17:33:08.143Z,101491.00
2023-11-22T17:35:38.703Z,101495.00
2023-11-22T17:38:06.515Z,101492.00
2023-11-22T17:40:34.222Z,101489.00
2023-11-22T17:43:02.648Z,101476.00
2023-11-22T17:45:30.834Z,101463.00
2023-11-22T17:47:59.784Z,101457.00
2023-11-22T17:50:27.886Z,101449.00
2023-11-22T17:52:55.918Z,101433.00
2023-11-22T17:55:23.689Z,101428.00
2023-11-22T17:57:51.418Z,101418.00
2023-11-22T18:00:20.527Z,101414.00
2023-11-22T18:02:48.429Z,101406.00
2023-11-22T18:05:22.371Z,101396.00
2023-11-22T18:07:53.554Z,101407.00
2023-11-22T18:10:21.317Z,101417.00
2023-11-22T18:12:49.136Z,101423.00
2023-11-22T18:15:16.849Z,101422.00
2023-11-22T18:17:44.924Z,101427.00
2023-11-22T18:20:12.930Z,101416.00
2023-11-22T18:22:40.808Z,101410.00
2023-11-22T18:25:09.066Z,101398.00
2023-11-22T18:27:37.292Z,101400.00
2023-11-22T18:30:06.036Z,101393.00
2023-11-22T18:32:33.818Z,101390.00
2023-11-22T18:35:01.565Z,101383.00
2023-11-22T18:37:29.566Z,101381.00
2023-11-22T18:40:00.463Z,101373.00
2023-11-22T18:42:29.379Z,101367.00
2023-11-22T18:44:57.686Z,101371.00
2023-11-22T18:47:25.802Z,101360.00
2023-11-22T18:49:55.226Z,101372.00
2023-11-22T18:52:23.678Z,101368.00
2023-11-22T18:54:51.335Z,101364.00
2023-11-22T18:57:19.101Z,101357.00
2023-11-22T18:59:47.565Z,101363.00
2023-11-22T19:02:15.780Z,101363.00
2023-11-22T19:04:44.146Z,101345.00
2023-11-22T19:07:14.121Z,101344.00
2023-11-22T19:09:42.009Z,101344.00
2023-11-22T19:12:12.651Z,101330.00
2023-11-22T19:14:40.559Z,101328.00
2023-11-22T19:17:09.923Z,101343.00
2023-11-22T19:19:39.578Z,101339.00
2023-11-22T19:22:07.970Z,101343.00
2023-11-22T19:24:35.776Z,101338.00
2023-11-22T19:27:03.602Z,101324.00
2023-11-22T19:29:31.544Z,101320.00
2023-11-22T19:31:59.872Z,101330.00
2023-11-22T19:34:27.645Z,101317.00
2023-11-22T19:36:56.543Z,101321.00
2023-11-22T19:39:25.942Z,101322.00
2023-11-22T19:41:54.069Z,101324.00
2023-11-22T19:44:24.295Z,101317.00
2023-11-22T19:46:52.048Z,101323.00
2023-11-22T19:49:19.870Z,101321.00
2023-11-22T19:51:47.651Z,101311.00
2023-11-22T19:54:15.482Z,101306.00
2023-11-22T19:56:43.393Z,101294.00
2023-11-22T19:59:11.617Z,101291.00
2023-11-22T20:01:44.025Z,101297.00
2023-11-22T20:04:12.848Z,101299.00
2023-11-22T20:06:41.331Z,101291.00
2023-11-22T20:09:09.447Z,101287.00
2023-11-22T20:11:37.510Z,101279.00
2023-11-22T20:14:05.581Z,101277.00
2023-11-22T20:16:34.185Z,101270.00
2023-11-22T20:19:02.113Z,101267.00
2023-11-22T20:21:29.782Z,101273.00
2023-11-22T20:23:57.559Z,101268.00
2023-11-22T20:26:25.471Z,101262.00
2023-11-22T20:28:53.195Z,101265.00
2023-11-22T20:31:21.242Z,101254.00
2023-11-22T20:33:49.003Z,101262.00
2023-11-22T20:36:16.809Z,101264.00
2023-11-22T20:38:51.164Z,101254.00
2023-11-22T20:41:23.112Z,101243.00
2023-11-22T20:43:50.829Z,101237.00
2023-11-22T20:46:18.867Z,101237.00
2023-11-22T20:48:46.950Z,101232.00
2023-11-22T20:51:14.957Z,101229.00
2023-11-22T20:53:42.850Z,101213.00
2023-11-22T20:56:11.284Z,101208.00
2023-11-22T20:58:39.076Z,101211.00
2023-11-22T21:01:07.259Z,101203.00
2023-11-22T21:03:34.994Z,101207.00
2023-11-22T21:06:02.795Z,101198.00
2023-11-22T21:08:30.701Z,101203.00
2023-11-22T21:10:58.545Z,101191.00
2023-11-22T21:13:26.404Z,101194.00
2023-11-22T21:15:54.892Z,101196.00
2023-11-22T21:18:22.876Z,101198.00
2023-11-22T21:20:50.730Z,101195.00
2023-11-22T21:23:18.547Z,101188.00
2023-11-22T21:25:46.284Z,101183.00
2023-11-22T21:28:14.101Z,101173.00
2023-11-22T21:30:42.046Z,101174.00
2023-11-22T21:33:09.925Z,101163.00
2023-11-22T21:35:37.564Z,101158.00
2023-11-22T21:38:05.637Z,101148.00
2023-11-22T21:40:34.890Z,101152.00
2023-11-22T21:43:02.727Z,101149.00
2023-11-22T21:45:30.504Z,101138.00
2023-11-22T21:47:58.593Z,101143.00
2023-11-22T21:50:26.568Z,101134.00
2023-11-22T21:52:54.438Z,101128.00
2023-11-22T21:55:22.735Z,101122.00
2023-11-22T21:57:50.463Z,101114.00
2023-11-22T22:00:18.178Z,101124.00
2023-11-22T22:02:46.274Z,101108.00
2023-11-22T22:05:14.312Z,101108.00
2023-11-22T22:07:41.931Z,101094.00
2023-11-22T22:10:10.797Z,101084.00
2023-11-22T22:12:38.428Z,101084.00
2023-11-22T22:15:06.572Z,101108.00
2023-11-22T22:17:34.561Z,101089.00
2023-11-22T22:20:03.367Z,101089.00
2023-11-22T22:22:31.460Z,101080.00
2023-11-22T22:24:59.360Z,101077.00
2023-11-22T22:27:27.308Z,101061.00
2023-11-22T22:29:55.073Z,101053.00
2023-11-22T22:32:22.955Z,101051.00
2023-11-22T22:34:50.802Z,101043.00
2023-11-22T22:37:18.725Z,101041.00
2023-11-22T22:39:46.758Z,101040.00
2023-11-22T22:42:14.627Z,101045.00
2023-11-22T22:44:42.320Z,101041.00
2023-11-22T22:47:12.817Z,101017.00
2023-11-22T22:49:40.971Z,101024.00
2023-11-22T22:52:12.018Z,101010.00
2023-11-22T22:54:41.480Z,101003.00
2023-11-22T22:57:09.366Z,100999.00
2023-11-22T22:59:37.185Z,100989.00
2023-11-22T23:02:05.192Z,101001.00
2023-11-22T23:04:34.984Z,100999.00
2023-11-22T23:07:02.875Z,101003.00
2023-11-22T23:09:30.630Z,100995.00
2023-11-22T23:11:58.297Z,100992.00
2023-11-22T23:14:26.075Z,100988.00
2023-11-22T23:16:53.709Z,100985.00
2023-11-22T23:19:22.041Z,100986.00
2023-11-22T23:21:50.502Z,100986.00
2023-11-22T23:24:19.675Z,100980.00
2023-11-22T23:26:47.570Z,100979.00
2023-11-22T23:29:18.064Z,100966.00
2023-11-22T23:31:46.148Z,100960.00
2023-11-22T23:34:14.035Z,100965.00
2023-11-22T23:36:42.867Z,100944.00
2023-11-22T23:39:13.876Z,100938.00
2023-11-22T23:41:41.780Z,100941.00
2023-11-22T23:44:12.321Z,100935.00
2023-11-22T23:46:42.679Z,100927.00
2023-11-22T23:49:10.921Z,100928.00
2023-11-22T23:51:38.807Z,100914.00
2023-11-22T23:54:06.713Z,100918.00
2023-11-22T23:56:38.314Z,100907.00
2023-11-22T23:59:08.700Z,100918.00
